sensor_id;sensor_type;location;lat;lon;timestamp;temperature;humidity
35635;DHT22;21757;43.610;1.440;2023-05-10T00:01:46;13.20;99.90
35635;DHT22;21757;43.610;1.440;2023-05-10T00:04:12;13.30;99.90
35635;DHT22;21757;43.610;1.440;2023-05-10T00:06:37;13.30;99.90
35635;DHT22;21757;43.610;1.440;2023-05-10T00:09:03;13.30;99.90
35635;DHT22;21757;43.610;1.440;2023-05-10T00:11:29;13.20;99.90
35635;DHT22;21757;43.610;1.440;2023-05-10T00:13:55;13.30;99.90
35635;DHT22;21757;43.610;1.440;2023-05-10T00:16:21;13.20;99.90
35635;DHT22;21757;43.610;1.440;2023-05-10T00:18:46;13.20;99.90
35635;DHT22;21757;43.610;1.440;2023-05-10T00:21:12;13.10;99.90
35635;DHT22;21757;43.610;1.440;2023-05-10T00:23:37;13.10;99.90
35635;DHT22;21757;43.610;1.440;2023-05-10T00:26:03;13.00;99.90
35635;DHT22;21757;43.610;1.440;2023-05-10T00:28:29;13.00;99.90
35635;DHT22;21757;43.610;1.440;2023-05-10T00:30:55;12.90;99.90
35635;DHT22;21757;43.610;1.440;2023-05-10T00:33:20;12.90;99.90
35635;DHT22;21757;43.610;1.440;2023-05-10T00:35:46;12.90;99.90
35635;DHT22;21757;43.610;1.440;2023-05-10T00:38:12;12.90;99.90
35635;DHT22;21757;43.610;1.440;2023-05-10T00:40:38;12.90;99.90
35635;DHT22;21757;43.610;1.440;2023-05-10T00:43:04;12.90;99.90
35635;DHT22;21757;43.610;1.440;2023-05-10T00:45:35;12.90;99.90
35635;DHT22;21757;43.610;1.440;2023-05-10T00:48:02;12.90;99.90
35635;DHT22;21757;43.610;1.440;2023-05-10T00:50:28;12.90;99.90
35635;DHT22;21757;43.610;1.440;2023-05-10T00:52:54;12.90;99.90
35635;DHT22;21757;43.610;1.440;2023-05-10T00:55:20;12.90;99.90
35635;DHT22;21757;43.610;1.440;2023-05-10T00:57:47;12.80;99.90
35635;DHT22;21757;43.610;1.440;2023-05-10T01:00:13;12.80;99.90
35635;DHT22;21757;43.610;1.440;2023-05-10T01:02:46;12.90;99.90
35635;DHT22;21757;43.610;1.440;2023-05-10T01:05:12;13.00;99.90
35635;DHT22;21757;43.610;1.440;2023-05-10T01:07:38;13.10;99.90
35635;DHT22;21757;43.610;1.440;2023-05-10T01:10:08;13.20;99.90
35635;DHT22;21757;43.610;1.440;2023-05-10T01:12:38;13.20;99.90
35635;DHT22;21757;43.610;1.440;2023-05-10T01:15:07;13.10;99.90
35635;DHT22;21757;43.610;1.440;2023-05-10T01:17:34;13.10;99.90
35635;DHT22;21757;43.610;1.440;2023-05-10T01:20:01;13.00;99.90
35635;DHT22;21757;43.610;1.440;2023-05-10T01:26:02;12.90;99.90
35635;DHT22;21757;43.610;1.440;2023-05-10T01:31:27;12.80;99.90
35635;DHT22;21757;43.610;1.440;2023-05-10T01:33:59;12.70;99.90
35635;DHT22;21757;43.610;1.440;2023-05-10T01:36:48;12.70;99.90
35635;DHT22;21757;43.610;1.440;2023-05-10T01:39:47;12.80;99.90
35635;DHT22;21757;43.610;1.440;2023-05-10T01:42:19;12.70;99.90
35635;DHT22;21757;43.610;1.440;2023-05-10T01:44:54;12.70;99.90
35635;DHT22;21757;43.610;1.440;2023-05-10T01:48:05;12.60;99.90
35635;DHT22;21757;43.610;1.440;2023-05-10T01:50:32;12.70;99.90
35635;DHT22;21757;43.610;1.440;2023-05-10T01:53:01;12.70;99.90
35635;DHT22;21757;43.610;1.440;2023-05-10T01:55:35;12.70;99.90
35635;DHT22;21757;43.610;1.440;2023-05-10T01:58:10;12.80;99.90
35635;DHT22;21757;43.610;1.440;2023-05-10T02:00:40;12.90;99.90
35635;DHT22;21757;43.610;1.440;2023-05-10T02:03:08;12.90;99.90
35635;DHT22;21757;43.610;1.440;2023-05-10T02:05:36;12.90;99.90
35635;DHT22;21757;43.610;1.440;2023-05-10T02:08:03;13.00;99.90
35635;DHT22;21757;43.610;1.440;2023-05-10T02:10:32;13.10;99.90
35635;DHT22;21757;43.610;1.440;2023-05-10T02:12:59;13.20;99.90
35635;DHT22;21757;43.610;1.440;2023-05-10T02:15:26;13.20;99.90
35635;DHT22;21757;43.610;1.440;2023-05-10T02:17:55;13.20;99.90
35635;DHT22;21757;43.610;1.440;2023-05-10T02:20:22;13.10;99.90
35635;DHT22;21757;43.610;1.440;2023-05-10T02:22:53;12.90;99.90
35635;DHT22;21757;43.610;1.440;2023-05-10T02:25:20;12.90;99.90
35635;DHT22;21757;43.610;1.440;2023-05-10T02:27:47;13.00;99.90
35635;DHT22;21757;43.610;1.440;2023-05-10T02:30:14;13.10;99.90
35635;DHT22;21757;43.610;1.440;2023-05-10T02:32:41;13.00;99.90
35635;DHT22;21757;43.610;1.440;2023-05-10T02:35:07;13.00;99.90
35635;DHT22;21757;43.610;1.440;2023-05-10T02:37:34;13.10;99.90
35635;DHT22;21757;43.610;1.440;2023-05-10T02:40:01;13.20;99.90
35635;DHT22;21757;43.610;1.440;2023-05-10T02:42:29;13.20;99.90
35635;DHT22;21757;43.610;1.440;2023-05-10T02:45:01;13.20;99.90
35635;DHT22;21757;43.610;1.440;2023-05-10T02:47:30;13.30;99.90
35635;DHT22;21757;43.610;1.440;2023-05-10T02:49:56;13.40;99.90
35635;DHT22;21757;43.610;1.440;2023-05-10T02:52:27;13.30;99.90
35635;DHT22;21757;43.610;1.440;2023-05-10T02:54:56;13.40;99.90
35635;DHT22;21757;43.610;1.440;2023-05-10T02:57:27;13.50;99.90
35635;DHT22;21757;43.610;1.440;2023-05-10T02:59:54;13.50;99.90
35635;DHT22;21757;43.610;1.440;2023-05-10T03:02:21;13.50;99.90
35635;DHT22;21757;43.610;1.440;2023-05-10T03:04:47;13.60;99.90
35635;DHT22;21757;43.610;1.440;2023-05-10T03:07:13;13.50;99.90
35635;DHT22;21757;43.610;1.440;2023-05-10T03:09:39;13.50;99.90
35635;DHT22;21757;43.610;1.440;2023-05-10T03:12:31;13.20;99.90
35635;DHT22;21757;43.610;1.440;2023-05-10T03:15:09;13.10;99.90
35635;DHT22;21757;43.610;1.440;2023-05-10T03:20:16;13.00;99.90
35635;DHT22;21757;43.610;1.440;2023-05-10T03:22:51;12.90;99.90
35635;DHT22;21757;43.610;1.440;2023-05-10T03:25:19;12.80;99.90
35635;DHT22;21757;43.610;1.440;2023-05-10T03:27:46;12.80;99.90
35635;DHT22;21757;43.610;1.440;2023-05-10T03:30:13;12.70;99.90
35635;DHT22;21757;43.610;1.440;2023-05-10T03:32:39;12.80;99.90
35635;DHT22;21757;43.610;1.440;2023-05-10T03:35:11;12.80;99.90
35635;DHT22;21757;43.610;1.440;2023-05-10T03:37:38;12.80;99.90
35635;DHT22;21757;43.610;1.440;2023-05-10T03:40:05;12.80;99.90
35635;DHT22;21757;43.610;1.440;2023-05-10T03:42:31;12.80;99.90
35635;DHT22;21757;43.610;1.440;2023-05-10T03:44:56;12.70;99.90
35635;DHT22;21757;43.610;1.440;2023-05-10T03:47:22;12.70;99.90
35635;DHT22;21757;43.610;1.440;2023-05-10T03:49:48;12.70;99.90
35635;DHT22;21757;43.610;1.440;2023-05-10T03:52:13;12.70;99.90
35635;DHT22;21757;43.610;1.440;2023-05-10T03:54:39;12.70;99.90
35635;DHT22;21757;43.610;1.440;2023-05-10T03:57:05;12.70;99.90
35635;DHT22;21757;43.610;1.440;2023-05-10T03:59:30;12.70;99.90
35635;DHT22;21757;43.610;1.440;2023-05-10T04:01:56;12.70;99.90
35635;DHT22;21757;43.610;1.440;2023-05-10T04:04:22;12.70;99.90
35635;DHT22;21757;43.610;1.440;2023-05-10T04:06:48;12.60;99.90
35635;DHT22;21757;43.610;1.440;2023-05-10T04:09:14;12.60;99.90
35635;DHT22;21757;43.610;1.440;2023-05-10T04:11:40;12.50;99.90
35635;DHT22;21757;43.610;1.440;2023-05-10T04:14:06;12.50;99.90
35635;DHT22;21757;43.610;1.440;2023-05-10T04:16:31;12.50;99.90
35635;DHT22;21757;43.610;1.440;2023-05-10T04:18:57;12.40;99.90
35635;DHT22;21757;43.610;1.440;2023-05-10T04:21:23;12.50;99.90
35635;DHT22;21757;43.610;1.440;2023-05-10T04:23:48;12.50;99.90
35635;DHT22;21757;43.610;1.440;2023-05-10T04:26:14;12.50;99.90
35635;DHT22;21757;43.610;1.440;2023-05-10T04:28:40;12.50;99.90
35635;DHT22;21757;43.610;1.440;2023-05-10T04:31:07;12.40;99.90
35635;DHT22;21757;43.610;1.440;2023-05-10T04:33:34;12.40;99.90
35635;DHT22;21757;43.610;1.440;2023-05-10T04:36:01;12.30;99.90
35635;DHT22;21757;43.610;1.440;2023-05-10T04:38:27;12.30;99.90
35635;DHT22;21757;43.610;1.440;2023-05-10T04:40:53;12.20;99.90
35635;DHT22;21757;43.610;1.440;2023-05-10T04:43:19;12.20;99.90
35635;DHT22;21757;43.610;1.440;2023-05-10T04:45:45;12.40;99.90
35635;DHT22;21757;43.610;1.440;2023-05-10T04:48:11;12.40;99.90
35635;DHT22;21757;43.610;1.440;2023-05-10T04:50:37;12.30;99.90
35635;DHT22;21757;43.610;1.440;2023-05-10T04:53:02;12.10;99.90
35635;DHT22;21757;43.610;1.440;2023-05-10T04:55:28;12.00;99.90
35635;DHT22;21757;43.610;1.440;2023-05-10T04:57:54;12.10;99.90
35635;DHT22;21757;43.610;1.440;2023-05-10T05:00:24;12.00;99.90
35635;DHT22;21757;43.610;1.440;2023-05-10T05:02:50;12.00;99.90
35635;DHT22;21757;43.610;1.440;2023-05-10T05:05:15;12.00;99.90
35635;DHT22;21757;43.610;1.440;2023-05-10T05:07:41;12.10;99.90
35635;DHT22;21757;43.610;1.440;2023-05-10T05:10:08;12.10;99.90
35635;DHT22;21757;43.610;1.440;2023-05-10T05:12:34;12.10;99.90
35635;DHT22;21757;43.610;1.440;2023-05-10T05:15:00;12.10;99.90
35635;DHT22;21757;43.610;1.440;2023-05-10T05:17:26;12.20;99.90
35635;DHT22;21757;43.610;1.440;2023-05-10T05:19:52;12.30;99.90
35635;DHT22;21757;43.610;1.440;2023-05-10T05:22:18;12.50;99.90
35635;DHT22;21757;43.610;1.440;2023-05-10T05:24:45;12.40;99.90
35635;DHT22;21757;43.610;1.440;2023-05-10T05:27:11;12.40;99.90
35635;DHT22;21757;43.610;1.440;2023-05-10T05:29:36;12.40;99.90
35635;DHT22;21757;43.610;1.440;2023-05-10T05:32:02;12.40;99.90
35635;DHT22;21757;43.610;1.440;2023-05-10T05:34:28;12.50;99.90
35635;DHT22;21757;43.610;1.440;2023-05-10T05:36:54;12.60;99.90
35635;DHT22;21757;43.610;1.440;2023-05-10T05:39:20;12.70;99.90
35635;DHT22;21757;43.610;1.440;2023-05-10T05:41:45;12.70;99.90
35635;DHT22;21757;43.610;1.440;2023-05-10T05:44:11;12.90;99.90
35635;DHT22;21757;43.610;1.440;2023-05-10T05:46:37;12.90;99.90
35635;DHT22;21757;43.610;1.440;2023-05-10T05:49:03;12.80;99.90
35635;DHT22;21757;43.610;1.440;2023-05-10T05:51:29;12.80;99.90
35635;DHT22;21757;43.610;1.440;2023-05-10T05:53:56;13.00;99.90
35635;DHT22;21757;43.610;1.440;2023-05-10T05:56:22;13.20;99.90
35635;DHT22;21757;43.610;1.440;2023-05-10T05:58:50;13.40;99.90
35635;DHT22;21757;43.610;1.440;2023-05-10T06:01:16;13.40;99.90
35635;DHT22;21757;43.610;1.440;2023-05-10T06:03:42;13.40;99.90
35635;DHT22;21757;43.610;1.440;2023-05-10T06:06:07;13.40;99.90
35635;DHT22;21757;43.610;1.440;2023-05-10T06:08:33;13.40;99.90
35635;DHT22;21757;43.610;1.440;2023-05-10T06:11:00;13.20;99.90
35635;DHT22;21757;43.610;1.440;2023-05-10T06:13:26;13.00;99.90
35635;DHT22;21757;43.610;1.440;2023-05-10T06:15:57;13.00;99.90
35635;DHT22;21757;43.610;1.440;2023-05-10T06:18:23;13.10;99.90
35635;DHT22;21757;43.610;1.440;2023-05-10T06:20:49;13.20;99.90
35635;DHT22;21757;43.610;1.440;2023-05-10T06:23:15;13.30;99.90
35635;DHT22;21757;43.610;1.440;2023-05-10T06:25:41;13.30;99.90
35635;DHT22;21757;43.610;1.440;2023-05-10T06:28:06;13.50;99.90
35635;DHT22;21757;43.610;1.440;2023-05-10T06:30:32;13.40;99.90
35635;DHT22;21757;43.610;1.440;2023-05-10T06:32:58;13.40;99.90
35635;DHT22;21757;43.610;1.440;2023-05-10T06:35:24;13.40;99.90
35635;DHT22;21757;43.610;1.440;2023-05-10T06:37:50;13.30;99.90
35635;DHT22;21757;43.610;1.440;2023-05-10T06:40:16;13.30;99.90
35635;DHT22;21757;43.610;1.440;2023-05-10T06:42:42;13.40;99.90
35635;DHT22;21757;43.610;1.440;2023-05-10T06:45:10;13.80;99.90
35635;DHT22;21757;43.610;1.440;2023-05-10T06:47:36;14.10;99.90
35635;DHT22;21757;43.610;1.440;2023-05-10T06:50:01;14.20;99.90
35635;DHT22;21757;43.610;1.440;2023-05-10T06:52:27;14.20;99.90
35635;DHT22;21757;43.610;1.440;2023-05-10T06:54:53;14.20;99.90
35635;DHT22;21757;43.610;1.440;2023-05-10T06:57:19;14.00;99.90
35635;DHT22;21757;43.610;1.440;2023-05-10T06:59:46;13.90;99.90
35635;DHT22;21757;43.610;1.440;2023-05-10T07:02:11;14.10;99.90
35635;DHT22;21757;43.610;1.440;2023-05-10T07:04:37;14.00;99.90
35635;DHT22;21757;43.610;1.440;2023-05-10T07:07:03;13.90;99.90
35635;DHT22;21757;43.610;1.440;2023-05-10T07:09:29;13.90;99.90
35635;DHT22;21757;43.610;1.440;2023-05-10T07:11:55;14.10;99.90
35635;DHT22;21757;43.610;1.440;2023-05-10T07:14:22;14.30;99.90
35635;DHT22;21757;43.610;1.440;2023-05-10T07:16:48;14.70;99.90
35635;DHT22;21757;43.610;1.440;2023-05-10T07:19:14;14.80;99.90
35635;DHT22;21757;43.610;1.440;2023-05-10T07:21:40;15.00;99.90
35635;DHT22;21757;43.610;1.440;2023-05-10T07:24:08;15.20;99.90
35635;DHT22;21757;43.610;1.440;2023-05-10T07:26:33;15.20;99.90
35635;DHT22;21757;43.610;1.440;2023-05-10T07:28:59;15.40;99.90
35635;DHT22;21757;43.610;1.440;2023-05-10T07:31:25;15.80;99.90
35635;DHT22;21757;43.610;1.440;2023-05-10T07:33:50;15.80;99.90
35635;DHT22;21757;43.610;1.440;2023-05-10T07:36:16;15.50;99.90
35635;DHT22;21757;43.610;1.440;2023-05-10T07:38:42;15.60;99.90
35635;DHT22;21757;43.610;1.440;2023-05-10T07:41:07;15.80;99.90
35635;DHT22;21757;43.610;1.440;2023-05-10T07:43:33;15.50;99.90
35635;DHT22;21757;43.610;1.440;2023-05-10T07:45:59;15.50;99.90
35635;DHT22;21757;43.610;1.440;2023-05-10T07:48:25;15.30;99.90
35635;DHT22;21757;43.610;1.440;2023-05-10T07:50:51;15.20;99.90
35635;DHT22;21757;43.610;1.440;2023-05-10T07:53:17;15.30;99.90
35635;DHT22;21757;43.610;1.440;2023-05-10T07:55:44;15.80;99.90
35635;DHT22;21757;43.610;1.440;2023-05-10T07:58:10;15.70;99.90
35635;DHT22;21757;43.610;1.440;2023-05-10T08:00:37;15.60;99.90
35635;DHT22;21757;43.610;1.440;2023-05-10T08:03:04;15.70;99.90
35635;DHT22;21757;43.610;1.440;2023-05-10T08:05:30;15.80;99.90
35635;DHT22;21757;43.610;1.440;2023-05-10T08:07:56;15.30;99.90
35635;DHT22;21757;43.610;1.440;2023-05-10T08:10:22;14.90;99.90
35635;DHT22;21757;43.610;1.440;2023-05-10T08:12:47;15.10;99.90
35635;DHT22;21757;43.610;1.440;2023-05-10T08:15:13;15.60;99.90
35635;DHT22;21757;43.610;1.440;2023-05-10T08:17:39;16.30;99.90
35635;DHT22;21757;43.610;1.440;2023-05-10T08:20:05;17.00;99.90
35635;DHT22;21757;43.610;1.440;2023-05-10T08:22:31;16.90;99.90
35635;DHT22;21757;43.610;1.440;2023-05-10T08:24:56;16.40;99.90
35635;DHT22;21757;43.610;1.440;2023-05-10T08:27:22;16.10;99.90
35635;DHT22;21757;43.610;1.440;2023-05-10T08:29:48;15.90;99.90
35635;DHT22;21757;43.610;1.440;2023-05-10T08:32:13;15.50;99.90
35635;DHT22;21757;43.610;1.440;2023-05-10T08:34:39;15.20;99.90
35635;DHT22;21757;43.610;1.440;2023-05-10T08:37:05;15.30;99.90
35635;DHT22;21757;43.610;1.440;2023-05-10T08:39:35;15.40;99.90
35635;DHT22;21757;43.610;1.440;2023-05-10T08:42:03;15.70;99.90
35635;DHT22;21757;43.610;1.440;2023-05-10T08:44:32;16.20;99.90
35635;DHT22;21757;43.610;1.440;2023-05-10T08:46:59;16.40;99.90
35635;DHT22;21757;43.610;1.440;2023-05-10T08:49:27;16.40;99.90
35635;DHT22;21757;43.610;1.440;2023-05-10T08:51:57;16.20;99.90
35635;DHT22;21757;43.610;1.440;2023-05-10T08:54:25;16.00;99.90
35635;DHT22;21757;43.610;1.440;2023-05-10T08:56:51;15.70;99.90
35635;DHT22;21757;43.610;1.440;2023-05-10T08:59:17;15.60;99.90
35635;DHT22;21757;43.610;1.440;2023-05-10T09:01:43;15.80;99.90
35635;DHT22;21757;43.610;1.440;2023-05-10T09:04:10;16.00;99.90
35635;DHT22;21757;43.610;1.440;2023-05-10T09:06:36;16.10;99.90
35635;DHT22;21757;43.610;1.440;2023-05-10T09:09:02;16.30;99.90
35635;DHT22;21757;43.610;1.440;2023-05-10T09:11:28;17.00;99.90
35635;DHT22;21757;43.610;1.440;2023-05-10T09:13:55;17.10;99.90
35635;DHT22;21757;43.610;1.440;2023-05-10T09:16:22;16.80;99.90
35635;DHT22;21757;43.610;1.440;2023-05-10T09:18:48;16.30;99.90
35635;DHT22;21757;43.610;1.440;2023-05-10T09:21:19;16.10;99.90
35635;DHT22;21757;43.610;1.440;2023-05-10T09:23:45;16.20;99.90
35635;DHT22;21757;43.610;1.440;2023-05-10T09:26:12;16.60;99.90
35635;DHT22;21757;43.610;1.440;2023-05-10T09:31:16;17.40;99.90
35635;DHT22;21757;43.610;1.440;2023-05-10T09:33:46;17.60;99.90
35635;DHT22;21757;43.610;1.440;2023-05-10T09:36:13;17.70;99.90
35635;DHT22;21757;43.610;1.440;2023-05-10T09:38:46;17.80;99.90
35635;DHT22;21757;43.610;1.440;2023-05-10T09:41:21;17.50;99.90
35635;DHT22;21757;43.610;1.440;2023-05-10T09:43:47;17.20;99.90
35635;DHT22;21757;43.610;1.440;2023-05-10T09:46:13;16.70;99.90
35635;DHT22;21757;43.610;1.440;2023-05-10T09:48:42;16.60;99.90
35635;DHT22;21757;43.610;1.440;2023-05-10T09:51:08;16.50;99.90
35635;DHT22;21757;43.610;1.440;2023-05-10T09:53:33;16.60;99.90
35635;DHT22;21757;43.610;1.440;2023-05-10T09:55:59;16.60;99.90
35635;DHT22;21757;43.610;1.440;2023-05-10T09:58:25;16.50;99.90
35635;DHT22;21757;43.610;1.440;2023-05-10T10:00:51;16.90;99.90
35635;DHT22;21757;43.610;1.440;2023-05-10T10:03:19;17.40;99.90
35635;DHT22;21757;43.610;1.440;2023-05-10T10:05:46;17.60;99.90
35635;DHT22;21757;43.610;1.440;2023-05-10T10:08:13;17.60;99.90
35635;DHT22;21757;43.610;1.440;2023-05-10T10:10:39;18.00;99.90
35635;DHT22;21757;43.610;1.440;2023-05-10T10:13:06;17.90;99.90
35635;DHT22;21757;43.610;1.440;2023-05-10T10:15:33;18.10;99.90
35635;DHT22;21757;43.610;1.440;2023-05-10T10:17:58;17.80;99.90
35635;DHT22;21757;43.610;1.440;2023-05-10T10:20:25;18.20;99.90
35635;DHT22;21757;43.610;1.440;2023-05-10T10:22:51;18.00;99.90
35635;DHT22;21757;43.610;1.440;2023-05-10T10:25:18;17.70;99.90
35635;DHT22;21757;43.610;1.440;2023-05-10T10:35:38;17.50;99.90
35635;DHT22;21757;43.610;1.440;2023-05-10T10:38:04;17.50;99.90
35635;DHT22;21757;43.610;1.440;2023-05-10T10:40:33;17.40;99.90
35635;DHT22;21757;43.610;1.440;2023-05-10T10:46:14;17.60;99.90
35635;DHT22;21757;43.610;1.440;2023-05-10T10:48:43;18.00;99.90
35635;DHT22;21757;43.610;1.440;2023-05-10T10:51:13;18.20;99.90
35635;DHT22;21757;43.610;1.440;2023-05-10T10:53:40;18.40;99.90
35635;DHT22;21757;43.610;1.440;2023-05-10T10:56:11;19.10;99.90
35635;DHT22;21757;43.610;1.440;2023-05-10T10:58:38;19.10;99.90
35635;DHT22;21757;43.610;1.440;2023-05-10T11:01:18;18.50;99.90
35635;DHT22;21757;43.610;1.440;2023-05-10T11:06:38;17.50;99.90
35635;DHT22;21757;43.610;1.440;2023-05-10T11:09:11;17.00;99.90
35635;DHT22;21757;43.610;1.440;2023-05-10T11:11:49;16.10;99.90
35635;DHT22;21757;43.610;1.440;2023-05-10T11:14:20;13.30;99.90
35635;DHT22;21757;43.610;1.440;2023-05-10T11:16:47;13.80;99.90
35635;DHT22;21757;43.610;1.440;2023-05-10T11:19:16;14.50;99.90
35635;DHT22;21757;43.610;1.440;2023-05-10T11:21:51;13.90;99.90
35635;DHT22;21757;43.610;1.440;2023-05-10T11:24:21;13.80;99.90
35635;DHT22;21757;43.610;1.440;2023-05-10T11:26:50;13.80;99.90
35635;DHT22;21757;43.610;1.440;2023-05-10T11:29:16;13.60;99.90
35635;DHT22;21757;43.610;1.440;2023-05-10T11:31:46;13.90;99.90
35635;DHT22;21757;43.610;1.440;2023-05-10T11:34:30;13.60;99.90
35635;DHT22;21757;43.610;1.440;2023-05-10T11:36:57;13.80;99.90
35635;DHT22;21757;43.610;1.440;2023-05-10T11:39:28;13.80;99.90
35635;DHT22;21757;43.610;1.440;2023-05-10T11:41:54;14.50;99.90
35635;DHT22;21757;43.610;1.440;2023-05-10T11:44:21;14.70;99.90
35635;DHT22;21757;43.610;1.440;2023-05-10T11:46:47;15.60;99.90
35635;DHT22;21757;43.610;1.440;2023-05-10T11:49:15;16.00;99.90
35635;DHT22;21757;43.610;1.440;2023-05-10T11:51:41;16.60;99.90
35635;DHT22;21757;43.610;1.440;2023-05-10T11:54:09;17.10;99.90
35635;DHT22;21757;43.610;1.440;2023-05-10T11:56:40;17.40;99.90
35635;DHT22;21757;43.610;1.440;2023-05-10T11:59:06;17.50;99.90
35635;DHT22;21757;43.610;1.440;2023-05-10T12:01:33;17.20;99.90
35635;DHT22;21757;43.610;1.440;2023-05-10T12:04:00;17.10;99.90
35635;DHT22;21757;43.610;1.440;2023-05-10T12:06:28;17.10;99.90
35635;DHT22;21757;43.610;1.440;2023-05-10T12:08:54;16.90;99.90
35635;DHT22;21757;43.610;1.440;2023-05-10T12:11:24;16.80;99.90
35635;DHT22;21757;43.610;1.440;2023-05-10T12:13:50;16.60;99.90
35635;DHT22;21757;43.610;1.440;2023-05-10T12:16:18;16.70;99.90
35635;DHT22;21757;43.610;1.440;2023-05-10T12:18:44;16.80;99.90
35635;DHT22;21757;43.610;1.440;2023-05-10T12:21:11;17.20;99.90
35635;DHT22;21757;43.610;1.440;2023-05-10T12:23:37;17.30;99.90
35635;DHT22;21757;43.610;1.440;2023-05-10T12:26:04;17.40;99.90
35635;DHT22;21757;43.610;1.440;2023-05-10T12:28:31;17.20;99.90
35635;DHT22;21757;43.610;1.440;2023-05-10T12:30:58;17.10;99.90
35635;DHT22;21757;43.610;1.440;2023-05-10T12:33:24;17.30;99.90
35635;DHT22;21757;43.610;1.440;2023-05-10T12:35:52;17.40;99.90
35635;DHT22;21757;43.610;1.440;2023-05-10T12:41:15;17.80;99.90
35635;DHT22;21757;43.610;1.440;2023-05-10T12:43:41;17.80;99.90
35635;DHT22;21757;43.610;1.440;2023-05-10T12:46:12;18.20;99.90
35635;DHT22;21757;43.610;1.440;2023-05-10T12:48:39;18.80;99.90
35635;DHT22;21757;43.610;1.440;2023-05-10T12:51:06;18.90;99.90
35635;DHT22;21757;43.610;1.440;2023-05-10T12:53:35;18.70;99.90
35635;DHT22;21757;43.610;1.440;2023-05-10T12:56:01;19.00;99.90
35635;DHT22;21757;43.610;1.440;2023-05-10T12:58:26;19.30;99.90
35635;DHT22;21757;43.610;1.440;2023-05-10T13:00:52;19.40;99.90
35635;DHT22;21757;43.610;1.440;2023-05-10T13:03:18;20.00;99.90
35635;DHT22;21757;43.610;1.440;2023-05-10T13:05:46;19.80;99.90
35635;DHT22;21757;43.610;1.440;2023-05-10T13:08:12;19.80;99.90
35635;DHT22;21757;43.610;1.440;2023-05-10T13:10:38;19.80;99.90
35635;DHT22;21757;43.610;1.440;2023-05-10T13:13:04;19.20;99.90
35635;DHT22;21757;43.610;1.440;2023-05-10T13:15:30;19.00;99.90
35635;DHT22;21757;43.610;1.440;2023-05-10T13:17:58;18.90;99.90
35635;DHT22;21757;43.610;1.440;2023-05-10T13:20:25;19.00;99.90
35635;DHT22;21757;43.610;1.440;2023-05-10T13:22:52;18.90;99.90
35635;DHT22;21757;43.610;1.440;2023-05-10T13:25:17;19.10;99.90
35635;DHT22;21757;43.610;1.440;2023-05-10T13:27:43;19.30;99.90
35635;DHT22;21757;43.610;1.440;2023-05-10T13:30:09;19.70;99.90
35635;DHT22;21757;43.610;1.440;2023-05-10T13:32:37;20.00;99.90
35635;DHT22;21757;43.610;1.440;2023-05-10T13:35:03;19.70;99.90
35635;DHT22;21757;43.610;1.440;2023-05-10T13:37:30;19.90;99.90
35635;DHT22;21757;43.610;1.440;2023-05-10T13:39:56;19.70;99.90
35635;DHT22;21757;43.610;1.440;2023-05-10T13:42:22;19.80;99.90
35635;DHT22;21757;43.610;1.440;2023-05-10T13:44:49;19.50;99.90
35635;DHT22;21757;43.610;1.440;2023-05-10T13:47:15;19.50;99.90
35635;DHT22;21757;43.610;1.440;2023-05-10T13:49:41;19.20;99.90
35635;DHT22;21757;43.610;1.440;2023-05-10T13:52:07;19.30;99.90
35635;DHT22;21757;43.610;1.440;2023-05-10T13:54:36;19.60;99.90
35635;DHT22;21757;43.610;1.440;2023-05-10T13:57:03;20.20;99.90
35635;DHT22;21757;43.610;1.440;2023-05-10T13:59:29;20.10;99.90
35635;DHT22;21757;43.610;1.440;2023-05-10T14:01:57;18.60;99.90
35635;DHT22;21757;43.610;1.440;2023-05-10T14:04:23;18.20;99.90
35635;DHT22;21757;43.610;1.440;2023-05-10T14:06:49;18.40;99.90
35635;DHT22;21757;43.610;1.440;2023-05-10T14:09:15;18.10;99.90
35635;DHT22;21757;43.610;1.440;2023-05-10T14:11:41;18.60;99.90
35635;DHT22;21757;43.610;1.440;2023-05-10T14:14:09;18.30;99.90
35635;DHT22;21757;43.610;1.440;2023-05-10T14:16:35;18.40;99.90
35635;DHT22;21757;43.610;1.440;2023-05-10T14:19:00;18.50;99.90
35635;DHT22;21757;43.610;1.440;2023-05-10T14:21:27;18.30;99.90
35635;DHT22;21757;43.610;1.440;2023-05-10T14:23:54;18.40;99.90
35635;DHT22;21757;43.610;1.440;2023-05-10T14:26:21;18.00;99.90
35635;DHT22;21757;43.610;1.440;2023-05-10T14:28:47;17.80;99.90
35635;DHT22;21757;43.610;1.440;2023-05-10T14:31:12;17.90;99.90
35635;DHT22;21757;43.610;1.440;2023-05-10T14:33:39;18.00;99.90
35635;DHT22;21757;43.610;1.440;2023-05-10T14:36:06;17.60;99.90
35635;DHT22;21757;43.610;1.440;2023-05-10T14:38:32;17.90;99.90
35635;DHT22;21757;43.610;1.440;2023-05-10T14:40:58;18.20;99.90
35635;DHT22;21757;43.610;1.440;2023-05-10T14:43:24;18.30;99.90
35635;DHT22;21757;43.610;1.440;2023-05-10T14:45:49;18.40;99.90
35635;DHT22;21757;43.610;1.440;2023-05-10T14:48:15;18.50;99.90
35635;DHT22;21757;43.610;1.440;2023-05-10T14:50:43;18.90;99.90
35635;DHT22;21757;43.610;1.440;2023-05-10T14:53:09;18.90;99.90
35635;DHT22;21757;43.610;1.440;2023-05-10T14:55:35;19.30;99.90
35635;DHT22;21757;43.610;1.440;2023-05-10T14:58:04;19.20;99.90
35635;DHT22;21757;43.610;1.440;2023-05-10T15:00:31;19.70;99.90
35635;DHT22;21757;43.610;1.440;2023-05-10T15:02:57;19.70;99.90
35635;DHT22;21757;43.610;1.440;2023-05-10T15:05:23;19.30;99.90
35635;DHT22;21757;43.610;1.440;2023-05-10T15:10:24;19.40;99.90
35635;DHT22;21757;43.610;1.440;2023-05-10T15:12:51;19.80;99.90
35635;DHT22;21757;43.610;1.440;2023-05-10T15:15:18;19.70;99.90
35635;DHT22;21757;43.610;1.440;2023-05-10T15:17:44;19.10;99.90
35635;DHT22;21757;43.610;1.440;2023-05-10T15:20:10;18.80;99.90
35635;DHT22;21757;43.610;1.440;2023-05-10T15:22:36;18.60;99.90
35635;DHT22;21757;43.610;1.440;2023-05-10T15:25:03;18.50;99.90
35635;DHT22;21757;43.610;1.440;2023-05-10T15:27:29;18.50;99.90
35635;DHT22;21757;43.610;1.440;2023-05-10T15:29:56;17.70;99.90
35635;DHT22;21757;43.610;1.440;2023-05-10T15:32:25;17.50;99.90
35635;DHT22;21757;43.610;1.440;2023-05-10T15:34:51;17.60;99.90
35635;DHT22;21757;43.610;1.440;2023-05-10T15:37:17;17.60;99.90
35635;DHT22;21757;43.610;1.440;2023-05-10T15:39:43;17.80;99.90
35635;DHT22;21757;43.610;1.440;2023-05-10T15:42:09;17.70;99.90
35635;DHT22;21757;43.610;1.440;2023-05-10T15:44:35;17.30;99.90
35635;DHT22;21757;43.610;1.440;2023-05-10T15:47:04;17.40;99.90
35635;DHT22;21757;43.610;1.440;2023-05-10T15:49:29;17.30;99.90
35635;DHT22;21757;43.610;1.440;2023-05-10T15:51:55;17.50;99.90
35635;DHT22;21757;43.610;1.440;2023-05-10T15:54:21;17.70;99.90
35635;DHT22;21757;43.610;1.440;2023-05-10T15:56:47;18.00;99.90
35635;DHT22;21757;43.610;1.440;2023-05-10T15:59:13;18.40;99.90
35635;DHT22;21757;43.610;1.440;2023-05-10T16:01:39;18.50;99.90